Time;durP1;ratioP1;P1;durP2;ratioP2;P2;SDS_P1;SDS_P2;PMS_P1;PMS_P2;Temp;Humidity;BMP_temperature;BMP_pressure;BME280_temperature;BME280_humidity;BME280_pressure;Samples;Min_cycle;Max_cycle;Signal;HPM_P1;HPM_P2
2022/01/10 00:00:48;;;;;;;8.07;3.58;;;10.40;99.90;;;;;;6230802;22;20015;-70
2022/01/10 00:03:14;;;;;;;4.53;2.85;;;10.40;99.90;;;;;;6228868;22;20027;-71
2022/01/10 00:05:41;;;;;;;6.20;3.33;;;10.30;99.90;;;;;;6232120;22;20445;-72
2022/01/10 00:08:08;;;;;;;6.65;3.47;;;10.20;99.90;;;;;;6228568;22;20016;-71
2022/01/10 00:10:35;;;;;;;5.75;3.25;;;10.10;99.90;;;;;;6232035;22;20012;-71
2022/01/10 00:13:02;;;;;;;7.75;3.40;;;10.10;99.90;;;;;;6229570;22;20107;-71
2022/01/10 00:15:29;;;;;;;7.85;3.75;;;10.00;99.90;;;;;;6228895;22;20324;-72
2022/01/10 00:17:55;;;;;;;9.70;3.65;;;10.00;99.90;;;;;;6217066;23;20401;-72
2022/01/10 00:20:22;;;;;;;7.00;3.50;;;10.00;99.90;;;;;;6228400;22;20529;-71
2022/01/10 00:22:49;;;;;;;6.35;4.20;;;9.90;99.90;;;;;;6239580;22;20443;-72
2022/01/10 00:25:18;;;;;;;6.90;3.63;;;10.00;99.90;;;;;;6259660;22;20027;-71
2022/01/10 00:27:46;;;;;;;6.30;3.35;;;9.90;99.90;;;;;;6246913;22;20443;-71
2022/01/10 00:30:13;;;;;;;7.20;3.60;;;9.90;99.90;;;;;;6248453;22;20019;-71
2022/01/10 00:32:41;;;;;;;6.97;3.58;;;10.00;99.90;;;;;;6246047;22;20320;-71
2022/01/10 00:35:08;;;;;;;7.85;3.80;;;10.10;99.90;;;;;;6259209;22;20012;-71
2022/01/10 00:37:35;;;;;;;7.45;3.63;;;10.10;99.90;;;;;;6236235;22;20015;-72
2022/01/10 00:40:03;;;;;;;9.07;3.90;;;10.20;99.90;;;;;;6245340;22;20020;-71
2022/01/10 00:42:30;;;;;;;7.43;3.65;;;10.40;99.90;;;;;;6232637;22;20016;-71
2022/01/10 00:45:01;;;;;;;8.50;3.50;;;10.40;99.90;;;;;;6238908;22;20016;-73
2022/01/10 00:47:27;;;;;;;6.75;4.32;;;10.50;99.90;;;;;;6248549;22;20016;-71
2022/01/10 00:49:53;;;;;;;7.28;3.67;;;10.60;99.90;;;;;;6240401;22;20024;-71
2022/01/10 00:52:19;;;;;;;8.63;3.42;;;10.60;99.90;;;;;;6249129;22;20344;-72
2022/01/10 00:54:47;;;;;;;8.82;3.50;;;10.70;99.90;;;;;;6247535;22;20114;-72
2022/01/10 00:57:12;;;;;;;7.07;3.30;;;10.70;99.90;;;;;;6255478;22;20040;-71
2022/01/10 00:59:39;;;;;;;8.18;3.65;;;10.80;99.90;;;;;;6255912;22;20020;-71
2022/01/10 01:02:05;;;;;;;8.88;3.67;;;10.80;99.90;;;;;;6269378;22;20012;-71
2022/01/10 01:04:30;;;;;;;8.88;3.75;;;10.80;99.90;;;;;;6243424;22;20495;-72
2022/01/10 01:06:57;;;;;;;10.75;3.80;;;10.80;99.90;;;;;;6271977;22;20016;-71
2022/01/10 01:09:28;;;;;;;6.65;3.67;;;10.80;99.90;;;;;;6269073;22;20026;-71
2022/01/10 01:13:23;;;;;;;7.40;3.70;;;10.90;99.90;;;;;;5068302;27;20348;-71
2022/01/10 01:16:09;;;;;;;8.70;3.58;;;10.90;99.90;;;;;;5065594;28;20056;-71
2022/01/10 01:24:08;;;;;;;6.07;2.83;;;10.90;99.90;;;;;;5053898;28;20067;-72
2022/01/10 01:26:45;;;;;;;6.75;3.33;;;10.90;99.90;;;;;;5061846;28;20521;-71
2022/01/10 01:29:15;;;;;;;7.13;3.60;;;10.90;99.90;;;;;;5050699;28;20033;-71
2022/01/10 01:31:42;;;;;;;14.30;3.78;;;10.90;99.90;;;;;;5059715;28;20074;-72
2022/01/10 01:34:09;;;;;;;7.22;3.08;;;10.90;99.90;;;;;;5056871;28;20033;-72
2022/01/10 01:36:36;;;;;;;9.00;3.72;;;10.90;99.90;;;;;;5056856;28;20032;-72
2022/01/10 01:39:15;;;;;;;11.82;3.58;;;10.90;99.90;;;;;;5060218;28;20055;-72
2022/01/10 01:41:43;;;;;;;12.02;3.70;;;11.00;99.90;;;;;;5054693;28;20033;-71
2022/01/10 01:44:10;;;;;;;8.00;3.22;;;11.00;99.90;;;;;;5058472;28;20420;-73
2022/01/10 01:46:37;;;;;;;9.50;3.38;;;11.10;99.90;;;;;;5065127;28;20033;-72
2022/01/10 01:49:05;;;;;;;12.10;3.63;;;11.10;99.90;;;;;;5059079;28;20041;-72
2022/01/10 01:51:32;;;;;;;11.18;3.85;;;11.20;99.90;;;;;;5054005;28;20040;-72
2022/01/10 01:54:00;;;;;;;8.90;2.88;;;11.20;99.90;;;;;;5069997;28;20037;-71
2022/01/10 01:56:26;;;;;;;9.30;2.92;;;11.30;99.90;;;;;;5062431;28;20413;-71
2022/01/10 01:58:54;;;;;;;8.73;2.55;;;11.30;99.90;;;;;;5048445;28;20052;-72
2022/01/10 02:01:20;;;;;;;10.52;2.83;;;11.30;99.90;;;;;;5052565;28;20033;-72
2022/01/10 02:03:47;;;;;;;7.22;2.30;;;11.40;99.90;;;;;;5054139;28;20118;-72
2022/01/10 02:06:14;;;;;;;10.88;2.78;;;11.40;99.90;;;;;;5044829;28;20053;-71
2022/01/10 02:08:40;;;;;;;10.38;4.00;;;11.50;99.90;;;;;;5055852;28;20037;-72
2022/01/10 02:11:08;;;;;;;13.15;3.08;;;11.50;99.90;;;;;;5050105;28;20116;-71
2022/01/10 02:13:36;;;;;;;11.48;3.05;;;11.50;99.90;;;;;;5051871;28;20033;-72
2022/01/10 02:16:04;;;;;;;9.38;2.72;;;11.50;99.90;;;;;;5059027;28;20098;-71
2022/01/10 02:18:31;;;;;;;9.98;3.13;;;11.50;99.90;;;;;;5056498;28;20091;-71
2022/01/10 02:21:00;;;;;;;8.25;2.60;;;11.50;99.90;;;;;;5058166;28;20037;-71
2022/01/10 02:23:27;;;;;;;8.07;2.80;;;11.60;99.90;;;;;;5044927;28;20037;-72
2022/01/10 02:25:54;;;;;;;7.72;2.35;;;11.60;99.90;;;;;;5041554;28;20500;-72
2022/01/10 02:28:20;;;;;;;10.25;2.85;;;11.60;99.90;;;;;;5046451;28;20437;-70
2022/01/10 02:30:46;;;;;;;11.85;2.90;;;11.60;99.90;;;;;;5038944;28;20061;-72
2022/01/10 02:33:13;;;;;;;7.53;3.00;;;11.60;99.90;;;;;;5045538;28;20445;-72
2022/01/10 02:36:01;;;;;;;8.52;2.63;;;11.60;99.90;;;;;;5044946;28;20043;-72
2022/01/10 02:38:29;;;;;;;10.20;2.83;;;11.50;99.90;;;;;;5034049;28;20400;-71
2022/01/10 02:40:58;;;;;;;5.28;2.17;;;11.60;99.90;;;;;;5043912;28;20470;-71
2022/01/10 02:43:23;;;;;;;9.15;2.60;;;11.60;99.90;;;;;;5042486;28;20106;-71
2022/01/10 02:45:49;;;;;;;8.52;2.22;;;11.60;99.90;;;;;;5042444;28;20368;-72
2022/01/10 02:48:15;;;;;;;10.25;3.00;;;11.60;99.90;;;;;;5047969;28;20366;-71
2022/01/10 02:50:42;;;;;;;15.30;2.97;;;11.50;99.90;;;;;;5039852;28;20029;-71
2022/01/10 02:53:08;;;;;;;7.18;2.35;;;11.50;99.90;;;;;;5040017;28;20034;-71
2022/01/10 02:55:34;;;;;;;8.60;2.60;;;11.50;99.90;;;;;;5045288;28;20079;-71
2022/01/10 02:58:00;;;;;;;10.13;2.97;;;11.50;99.90;;;;;;5022415;28;20526;-71
2022/01/10 03:00:27;;;;;;;10.20;2.85;;;11.50;99.90;;;;;;5028530;28;20033;-70
2022/01/10 03:02:55;;;;;;;8.82;2.72;;;11.50;99.90;;;;;;5040265;28;20041;-71
2022/01/10 03:05:22;;;;;;;9.07;2.50;;;11.50;99.90;;;;;;5031536;28;20033;-72
2022/01/10 03:07:52;;;;;;;6.03;2.50;;;11.50;99.90;;;;;;5040554;28;20033;-71
2022/01/10 03:10:18;;;;;;;8.40;2.78;;;11.40;99.90;;;;;;5036092;28;20129;-70
2022/01/10 03:12:44;;;;;;;9.20;2.13;;;11.40;99.90;;;;;;5041884;28;20045;-72
2022/01/10 03:15:11;;;;;;;8.55;2.30;;;11.40;99.90;;;;;;5037722;28;20091;-72
2022/01/10 03:17:39;;;;;;;6.72;2.05;;;11.40;99.90;;;;;;5023063;28;20060;-71
2022/01/10 03:20:07;;;;;;;8.38;2.35;;;11.40;99.90;;;;;;5035279;28;20034;-71
2022/01/10 03:22:34;;;;;;;7.03;2.20;;;11.40;99.90;;;;;;5038253;28;20033;-72
2022/01/10 03:25:00;;;;;;;6.28;2.15;;;11.40;99.90;;;;;;5040068;28;20076;-71
2022/01/10 03:27:26;;;;;;;6.30;2.17;;;11.40;99.90;;;;;;5041120;28;20048;-71
2022/01/10 03:29:53;;;;;;;5.25;2.30;;;11.40;99.90;;;;;;5042818;28;20322;-71
2022/01/10 03:32:21;;;;;;;6.85;2.15;;;11.40;99.90;;;;;;5037320;28;20048;-72
2022/01/10 03:34:46;;;;;;;5.35;2.58;;;11.50;99.90;;;;;;5039094;28;20051;-72
2022/01/10 03:37:12;;;;;;;8.15;2.35;;;11.40;99.90;;;;;;5043127;28;20610;-70
2022/01/10 03:39:39;;;;;;;8.05;2.90;;;11.50;99.90;;;;;;5040640;28;20044;-70
2022/01/10 03:42:05;;;;;;;6.38;2.47;;;11.50;99.90;;;;;;5045525;28;20539;-71
2022/01/10 03:44:31;;;;;;;7.38;2.20;;;11.40;99.90;;;;;;5042794;28;20041;-71
2022/01/10 03:46:57;;;;;;;8.40;2.63;;;11.50;99.90;;;;;;5040915;28;20049;-72
2022/01/10 03:49:24;;;;;;;7.53;2.50;;;11.50;99.90;;;;;;5035555;28;20036;-72
2022/01/10 03:51:50;;;;;;;9.13;2.50;;;11.50;99.90;;;;;;5035188;28;20041;-72
2022/01/10 03:54:17;;;;;;;7.68;2.20;;;11.50;99.90;;;;;;5044366;28;20034;-71
2022/01/10 03:56:44;;;;;;;6.32;2.20;;;11.50;99.90;;;;;;5041201;28;20041;-72
2022/01/10 03:59:10;;;;;;;6.63;2.13;;;11.50;99.90;;;;;;5035797;28;20164;-72
2022/01/10 04:01:38;;;;;;;7.00;2.30;;;11.60;99.90;;;;;;5044589;28;20102;-70
2022/01/10 04:04:07;;;;;;;8.57;2.40;;;11.50;99.90;;;;;;5043798;28;20037;-72
2022/01/10 04:06:34;;;;;;;6.47;2.38;;;11.50;99.90;;;;;;5041728;28;20162;-71
2022/01/10 04:09:00;;;;;;;8.55;2.53;;;11.50;99.90;;;;;;5041749;28;20392;-71
2022/01/10 04:11:26;;;;;;;5.57;2.03;;;11.50;99.90;;;;;;5043089;28;20041;-72
2022/01/10 04:13:52;;;;;;;8.07;2.50;;;11.50;99.90;;;;;;5038958;28;20409;-71
2022/01/10 04:16:18;;;;;;;6.07;2.40;;;11.50;99.90;;;;;;5033434;28;20504;-72
2022/01/10 04:18:45;;;;;;;6.68;2.97;;;11.60;99.90;;;;;;5036039;28;20029;-71
2022/01/10 04:21:11;;;;;;;6.28;2.20;;;11.60;99.90;;;;;;5035292;28;20493;-71
2022/01/10 04:23:37;;;;;;;8.20;2.30;;;11.60;99.90;;;;;;5024137;28;20047;-71
2022/01/10 04:26:03;;;;;;;12.75;2.83;;;11.50;99.90;;;;;;5044943;28;20041;-71
2022/01/10 04:28:30;;;;;;;7.65;2.50;;;11.50;99.90;;;;;;5039766;28;20682;-72
2022/01/10 04:30:56;;;;;;;7.90;1.80;;;11.40;99.90;;;;;;5038412;28;20132;-71
2022/01/10 04:33:28;;;;;;;8.55;2.33;;;11.40;99.90;;;;;;5044464;28;20643;-70
2022/01/10 04:35:55;;;;;;;6.15;2.30;;;11.40;99.90;;;;;;5036067;28;20037;-71
2022/01/10 04:38:23;;;;;;;9.27;2.10;;;11.50;99.90;;;;;;5052514;28;20038;-72
2022/01/10 04:40:51;;;;;;;8.15;2.13;;;11.50;99.90;;;;;;5035184;28;20554;-71
2022/01/10 04:43:18;;;;;;;6.45;2.08;;;11.50;99.90;;;;;;5037926;28;20048;-72
2022/01/10 04:45:44;;;;;;;10.63;1.95;;;11.50;99.90;;;;;;5034943;28;20085;-71
2022/01/10 04:48:11;;;;;;;5.05;1.70;;;11.60;99.90;;;;;;5037978;28;20033;-72
2022/01/10 04:53:24;;;;;;;6.43;2.25;;;11.60;99.90;;;;;;5035346;28;20067;-71
2022/01/10 04:55:50;;;;;;;5.30;2.05;;;11.60;99.90;;;;;;5029604;28;20105;-71
2022/01/10 04:58:16;;;;;;;6.57;1.98;;;11.60;99.90;;;;;;5037124;28;20041;-71
2022/01/10 05:00:42;;;;;;;5.53;2.42;;;11.70;99.90;;;;;;5038197;28;20033;-72
2022/01/10 05:03:08;;;;;;;7.68;2.55;;;11.70;99.90;;;;;;5037489;28;20038;-71
2022/01/10 05:05:34;;;;;;;6.38;1.90;;;11.60;99.90;;;;;;5044656;28;20066;-72
2022/01/10 05:08:00;;;;;;;4.68;2.00;;;11.70;99.90;;;;;;5033787;28;20133;-72
2022/01/10 05:10:26;;;;;;;6.95;1.70;;;11.70;99.90;;;;;;5038364;28;20140;-71
2022/01/10 05:12:53;;;;;;;3.85;1.77;;;11.70;99.90;;;;;;5033541;28;20373;-72
2022/01/10 05:15:19;;;;;;;5.32;1.83;;;11.70;99.90;;;;;;5036797;28;20038;-71
2022/01/10 05:17:46;;;;;;;3.72;1.45;;;11.70;99.90;;;;;;5026928;28;20033;-72
2022/01/10 05:20:12;;;;;;;3.78;1.80;;;11.70;99.90;;;;;;5036019;28;20120;-72
2022/01/10 05:22:38;;;;;;;5.20;1.85;;;11.70;99.90;;;;;;5039285;28;20127;-72
2022/01/10 05:25:04;;;;;;;4.43;1.83;;;11.70;99.90;;;;;;5036708;28;20095;-72
2022/01/10 05:27:31;;;;;;;5.40;1.85;;;11.70;99.90;;;;;;5040540;28;20484;-71
2022/01/10 05:29:57;;;;;;;5.70;2.03;;;11.70;99.90;;;;;;5037611;28;20095;-72
2022/01/10 05:32:24;;;;;;;5.00;1.85;;;11.70;99.90;;;;;;5036667;28;20045;-72
2022/01/10 05:34:50;;;;;;;6.15;1.98;;;11.70;99.90;;;;;;5047005;28;20037;-72
2022/01/10 05:37:16;;;;;;;6.00;2.00;;;11.70;99.90;;;;;;5037544;28;20048;-71
2022/01/10 05:39:42;;;;;;;5.97;2.00;;;11.70;99.90;;;;;;5028072;28;20538;-72
2022/01/10 05:42:08;;;;;;;6.90;2.42;;;11.60;99.90;;;;;;5035023;28;20048;-71
2022/01/10 05:44:34;;;;;;;10.65;2.67;;;11.70;99.90;;;;;;5035039;28;20040;-71
2022/01/10 05:47:01;;;;;;;5.45;1.95;;;11.70;99.90;;;;;;5040042;28;20061;-71
2022/01/10 05:49:33;;;;;;;7.80;2.22;;;11.70;99.90;;;;;;5042342;28;20510;-72
2022/01/10 05:52:00;;;;;;;4.60;2.28;;;11.70;99.90;;;;;;5043454;28;20119;-71
2022/01/10 05:54:26;;;;;;;5.70;2.22;;;11.70;99.90;;;;;;5040235;28;20046;-72
2022/01/10 05:56:52;;;;;;;5.90;2.58;;;11.70;99.90;;;;;;5039902;28;20045;-71
2022/01/10 05:59:19;;;;;;;5.55;2.45;;;11.70;99.90;;;;;;5040981;28;20033;-71
2022/01/10 06:01:47;;;;;;;8.80;2.28;;;11.70;99.90;;;;;;5039311;28;20034;-72
2022/01/10 06:04:13;;;;;;;6.72;1.92;;;11.70;99.90;;;;;;5044567;28;20064;-72
2022/01/10 06:06:39;;;;;;;7.07;1.90;;;11.60;99.90;;;;;;5038158;28;20037;-71
2022/01/10 06:09:06;;;;;;;9.77;2.20;;;11.60;99.90;;;;;;5029946;28;20063;-72
2022/01/10 06:11:34;;;;;;;5.90;2.10;;;11.60;99.90;;;;;;5040028;28;20037;-72
2022/01/10 06:14:00;;;;;;;8.82;2.25;;;11.70;99.90;;;;;;5045331;28;20843;-71
2022/01/10 06:16:28;;;;;;;9.05;2.17;;;11.70;99.90;;;;;;5037689;28;20038;-73
2022/01/10 06:18:54;;;;;;;6.75;1.80;;;11.70;99.90;;;;;;5038786;28;20054;-73
2022/01/10 06:21:20;;;;;;;7.25;2.10;;;11.70;99.90;;;;;;5039464;28;20059;-71
2022/01/10 06:23:46;;;;;;;4.65;2.17;;;11.70;99.90;;;;;;5043111;28;20044;-72
2022/01/10 06:26:12;;;;;;;5.88;2.22;;;11.70;99.90;;;;;;5034312;28;20036;-72
2022/01/10 06:28:38;;;;;;;7.07;2.38;;;11.70;99.90;;;;;;5040576;28;20037;-73
2022/01/10 06:31:04;;;;;;;8.73;2.55;;;11.70;99.90;;;;;;5040850;28;20037;-72
2022/01/10 06:33:30;;;;;;;5.40;2.08;;;11.70;99.90;;;;;;5039849;28;20033;-72
2022/01/10 06:35:57;;;;;;;6.80;2.00;;;11.60;99.90;;;;;;5047548;28;20102;-71
2022/01/10 06:38:23;;;;;;;6.88;1.95;;;11.60;99.90;;;;;;5042156;28;20045;-71
2022/01/10 06:40:49;;;;;;;6.40;2.20;;;11.60;99.90;;;;;;5044355;28;20044;-71
2022/01/10 06:43:15;;;;;;;6.85;2.70;;;11.60;99.90;;;;;;5036927;28;20350;-72
2022/01/10 06:45:41;;;;;;;8.55;2.35;;;11.60;99.90;;;;;;5042842;28;20048;-72
2022/01/10 06:48:08;;;;;;;7.65;2.67;;;11.60;99.90;;;;;;5042580;28;20476;-72
2022/01/10 06:50:34;;;;;;;9.73;2.20;;;11.60;99.90;;;;;;5027656;28;20049;-72
2022/01/10 06:53:02;;;;;;;16.30;3.20;;;11.60;99.90;;;;;;5039797;28;20135;-73
2022/01/10 06:55:28;;;;;;;7.13;2.63;;;11.60;99.90;;;;;;5032905;28;20044;-72
2022/01/10 06:57:54;;;;;;;4.53;2.72;;;11.60;99.90;;;;;;5041383;28;20037;-72
2022/01/10 07:00:20;;;;;;;5.38;2.58;;;11.60;99.90;;;;;;5038449;28;20395;-72
2022/01/10 07:02:46;;;;;;;6.43;2.58;;;11.60;99.90;;;;;;5042733;28;20037;-73
2022/01/10 07:05:12;;;;;;;5.53;2.35;;;11.60;99.90;;;;;;5045398;28;20102;-71
2022/01/10 07:07:38;;;;;;;6.00;2.58;;;11.60;99.90;;;;;;5040421;28;20115;-75
2022/01/10 07:10:05;;;;;;;5.68;2.60;;;11.60;99.90;;;;;;5041886;28;20083;-71
2022/01/10 07:12:31;;;;;;;6.70;2.85;;;11.60;99.90;;;;;;5039806;28;20041;-71
2022/01/10 07:14:57;;;;;;;6.57;2.90;;;11.60;99.90;;;;;;5048393;28;20049;-71
2022/01/10 07:17:23;;;;;;;6.25;2.83;;;11.50;99.90;;;;;;5045461;28;20485;-73
2022/01/10 07:19:49;;;;;;;7.63;2.80;;;11.50;99.90;;;;;;5046119;28;20571;-71
2022/01/10 07:22:16;;;;;;;5.85;2.60;;;11.40;99.90;;;;;;5040712;28;20060;-71
2022/01/10 07:24:42;;;;;;;6.78;2.88;;;11.30;99.90;;;;;;5047064;28;20377;-72
2022/01/10 07:27:08;;;;;;;6.57;2.40;;;11.30;99.90;;;;;;5042608;28;20132;-70
2022/01/10 07:29:33;;;;;;;4.80;2.42;;;11.30;99.90;;;;;;5039464;28;20457;-73
2022/01/10 07:31:59;;;;;;;10.35;3.03;;;11.20;99.90;;;;;;5040113;28;20041;-72
2022/01/10 07:34:26;;;;;;;5.57;2.60;;;11.20;99.90;;;;;;5046343;28;20044;-71
2022/01/10 07:36:52;;;;;;;9.77;2.50;;;11.20;99.90;;;;;;5035322;28;20073;-72
2022/01/10 07:39:18;;;;;;;9.13;2.70;;;11.20;99.90;;;;;;5035634;28;20099;-71
2022/01/10 07:41:46;;;;;;;5.30;2.65;;;11.20;99.90;;;;;;5043928;28;20156;-72
2022/01/10 07:44:12;;;;;;;6.45;2.30;;;11.20;99.90;;;;;;5037141;28;20114;-73
2022/01/10 07:46:39;;;;;;;5.60;2.55;;;11.20;99.90;;;;;;5044104;28;20044;-71
2022/01/10 07:49:05;;;;;;;7.45;2.63;;;11.20;99.90;;;;;;5038085;28;20075;-71
2022/01/10 07:51:31;;;;;;;6.32;2.80;;;11.20;99.90;;;;;;5038723;28;20076;-72
2022/01/10 07:53:59;;;;;;;5.95;2.25;;;11.20;99.90;;;;;;5042208;28;20052;-71
2022/01/10 07:56:26;;;;;;;6.45;2.47;;;11.30;99.90;;;;;;5041842;28;20049;-72
2022/01/10 07:58:52;;;;;;;7.82;2.65;;;11.30;99.90;;;;;;5045114;28;20037;-72
2022/01/10 08:01:20;;;;;;;9.25;2.55;;;11.30;99.90;;;;;;5036691;28;20036;-72
2022/01/10 08:03:50;;;;;;;9.57;2.38;;;11.30;99.90;;;;;;5039430;28;20044;-72
2022/01/10 08:06:20;;;;;;;7.53;2.70;;;11.30;99.90;;;;;;5038301;28;20404;-72
2022/01/10 08:08:46;;;;;;;12.02;2.80;;;11.30;99.90;;;;;;5041738;28;20095;-72
2022/01/10 08:11:13;;;;;;;11.27;3.42;;;11.30;99.90;;;;;;5041928;28;20045;-72
2022/01/10 08:13:40;;;;;;;8.70;3.35;;;11.30;99.90;;;;;;5043514;28;20034;-71
2022/01/10 08:16:06;;;;;;;8.75;3.20;;;11.20;99.90;;;;;;5036558;28;20035;-72
2022/01/10 08:18:33;;;;;;;11.77;3.58;;;11.20;99.90;;;;;;5047571;28;20045;-72
2022/01/10 08:21:01;;;;;;;8.73;2.90;;;11.30;99.90;;;;;;5044743;28;20039;-72
2022/01/10 08:23:28;;;;;;;7.07;2.55;;;11.20;99.90;;;;;;5038151;28;20101;-72
2022/01/10 08:25:54;;;;;;;10.25;3.33;;;11.20;99.90;;;;;;5036549;28;20038;-73
2022/01/10 08:28:22;;;;;;;7.68;2.70;;;11.20;99.90;;;;;;5039619;28;20484;-72
2022/01/10 08:30:49;;;;;;;8.63;3.20;;;11.20;99.90;;;;;;5045420;28;20026;-72
2022/01/10 08:33:15;;;;;;;10.07;3.35;;;11.30;99.90;;;;;;5036388;28;20041;-72
2022/01/10 08:35:41;;;;;;;10.48;3.40;;;11.30;99.90;;;;;;5041252;28;20094;-72
2022/01/10 08:38:07;;;;;;;5.38;2.80;;;11.30;99.90;;;;;;5044532;28;20484;-72
2022/01/10 08:40:33;;;;;;;7.60;3.22;;;11.20;99.90;;;;;;5042194;28;20086;-73
2022/01/10 08:43:06;;;;;;;10.05;3.70;;;11.20;99.90;;;;;;5037855;28;20045;-72
2022/01/10 08:45:32;;;;;;;10.73;3.42;;;11.20;99.90;;;;;;5044709;28;20056;-73
2022/01/10 08:47:58;;;;;;;7.10;3.83;;;11.20;99.90;;;;;;5042405;28;20496;-73
2022/01/10 08:50:26;;;;;;;9.95;3.58;;;11.20;99.90;;;;;;5033915;28;20052;-71
2022/01/10 08:52:53;;;;;;;7.53;3.35;;;11.20;99.90;;;;;;5024571;28;20076;-71
2022/01/10 08:55:19;;;;;;;8.80;3.25;;;11.20;99.90;;;;;;5037126;28;20132;-72
2022/01/10 08:57:48;;;;;;;7.40;3.47;;;11.10;99.90;;;;;;5040081;28;20133;-73
2022/01/10 09:00:16;;;;;;;11.45;3.50;;;11.10;99.90;;;;;;5025801;28;20095;-76
2022/01/10 09:02:43;;;;;;;11.45;3.92;;;11.10;99.90;;;;;;5037810;28;20489;-75
2022/01/10 09:05:09;;;;;;;8.18;4.05;;;11.20;99.90;;;;;;5037291;28;20057;-73
2022/01/10 09:07:37;;;;;;;8.50;3.83;;;11.00;99.90;;;;;;5039390;28;20152;-72
2022/01/10 09:10:05;;;;;;;8.98;4.40;;;11.00;99.90;;;;;;5037327;28;20049;-73
2022/01/10 09:12:32;;;;;;;12.40;4.30;;;11.00;99.90;;;;;;5038584;28;20131;-73
2022/01/10 09:14:58;;;;;;;10.15;4.60;;;11.00;99.90;;;;;;5035199;28;20040;-73
2022/01/10 09:17:26;;;;;;;9.15;4.10;;;11.00;99.90;;;;;;5044851;28;20029;-70
2022/01/10 09:19:52;;;;;;;14.10;3.83;;;11.00;99.90;;;;;;5039284;28;20424;-72
2022/01/10 09:22:19;;;;;;;8.57;3.75;;;11.00;99.90;;;;;;5041764;28;20041;-72
2022/01/10 09:24:46;;;;;;;6.90;3.90;;;10.90;99.90;;;;;;5037543;28;20051;-73
2022/01/10 09:27:15;;;;;;;8.02;3.65;;;10.90;99.90;;;;;;5041040;28;20038;-72
2022/01/10 09:29:46;;;;;;;8.05;4.00;;;10.90;99.90;;;;;;5040356;28;20110;-73
2022/01/10 09:32:13;;;;;;;8.35;3.78;;;10.90;99.90;;;;;;5038995;28;20048;-72
2022/01/10 09:34:39;;;;;;;10.27;4.18;;;10.90;99.90;;;;;;5034868;28;20040;-72
2022/01/10 09:37:05;;;;;;;8.63;4.13;;;10.90;99.90;;;;;;5038723;28;20034;-72
2022/01/10 09:39:31;;;;;;;11.13;4.18;;;11.00;99.90;;;;;;5042190;28;20060;-72
2022/01/10 09:41:58;;;;;;;9.80;4.25;;;11.10;99.90;;;;;;5043200;28;20057;-72
2022/01/10 09:44:24;;;;;;;10.63;4.35;;;11.20;99.90;;;;;;5043830;28;20045;-73
2022/01/10 09:46:53;;;;;;;7.10;3.47;;;11.10;99.90;;;;;;5042680;28;20037;-72
2022/01/10 09:49:19;;;;;;;9.95;4.13;;;11.10;99.90;;;;;;5043369;28;20041;-72
2022/01/10 09:51:46;;;;;;;11.15;3.90;;;11.10;99.90;;;;;;5042412;28;20095;-72
2022/01/10 09:54:13;;;;;;;9.32;3.83;;;11.10;99.90;;;;;;5042060;28;20425;-72
2022/01/10 09:56:41;;;;;;;10.00;3.83;;;11.10;99.90;;;;;;5043126;28;20029;-72
2022/01/10 09:59:07;;;;;;;8.70;4.07;;;11.10;99.90;;;;;;5040270;28;20111;-72
2022/01/10 10:01:34;;;;;;;7.70;4.38;;;11.00;99.90;;;;;;5044760;28;20553;-72
2022/01/10 10:04:01;;;;;;;7.38;4.28;;;11.10;99.90;;;;;;5049840;28;20928;-73
2022/01/10 10:06:29;;;;;;;8.95;3.60;;;11.20;99.90;;;;;;5046048;28;20033;-72
2022/01/10 10:09:04;;;;;;;7.65;3.28;;;11.20;99.90;;;;;;5047756;28;20037;-72
2022/01/10 10:11:49;;;;;;;8.55;3.53;;;11.30;99.90;;;;;;5038300;28;20136;-72
2022/01/10 10:14:18;;;;;;;10.00;3.42;;;11.40;99.90;;;;;;5042413;28;20544;-73
2022/01/10 10:16:50;;;;;;;9.73;4.85;;;11.40;99.90;;;;;;5043059;28;20030;-72
2022/01/10 10:19:18;;;;;;;8.00;3.83;;;11.40;99.90;;;;;;5025865;28;20037;-73
2022/01/10 10:21:44;;;;;;;8.60;3.80;;;11.40;99.90;;;;;;5039688;28;20040;-73
2022/01/10 10:24:11;;;;;;;7.18;3.72;;;11.50;99.90;;;;;;5045587;28;20041;-73
2022/01/10 10:26:37;;;;;;;7.30;4.13;;;11.50;99.90;;;;;;5038603;28;20037;-73
2022/01/10 10:29:05;;;;;;;11.27;4.00;;;11.40;99.90;;;;;;5040110;28;20060;-74
2022/01/10 10:31:37;;;;;;;9.68;3.70;;;11.50;99.90;;;;;;5044768;28;20418;-73
2022/01/10 10:34:04;;;;;;;6.70;3.50;;;11.50;99.90;;;;;;5044146;28;20101;-73
2022/01/10 10:36:33;;;;;;;9.57;3.90;;;11.50;99.90;;;;;;5045646;28;20469;-72
2022/01/10 10:39:03;;;;;;;10.80;4.10;;;11.50;99.90;;;;;;5046763;28;20033;-73
2022/01/10 10:41:29;;;;;;;11.35;4.40;;;11.60;99.90;;;;;;5042323;28;20044;-72
2022/01/10 10:43:55;;;;;;;13.70;4.10;;;11.60;99.90;;;;;;5041405;28;20497;-72
2022/01/10 10:46:26;;;;;;;11.00;4.40;;;11.50;99.90;;;;;;5038293;28;20044;-72
2022/01/10 10:48:56;;;;;;;8.55;4.13;;;11.50;99.90;;;;;;5040812;28;20038;-73
2022/01/10 10:51:26;;;;;;;11.07;4.22;;;11.40;99.90;;;;;;5041993;28;20051;-72
2022/01/10 10:53:56;;;;;;;15.18;4.45;;;11.30;99.90;;;;;;5043934;28;20056;-73
2022/01/10 10:56:23;;;;;;;11.60;4.10;;;11.30;99.90;;;;;;5043570;28;20122;-73
2022/01/10 10:58:49;;;;;;;7.28;3.88;;;11.30;99.90;;;;;;5040927;28;20515;-72
2022/01/10 11:01:15;;;;;;;8.27;4.03;;;11.20;99.90;;;;;;5045002;28;20048;-72
2022/01/10 11:03:43;;;;;;;9.50;3.67;;;11.20;99.90;;;;;;5049662;28;20040;-73
2022/01/10 11:06:11;;;;;;;7.45;3.45;;;11.10;99.90;;;;;;5023941;28;20045;-73
2022/01/10 11:08:40;;;;;;;9.55;4.15;;;11.10;99.90;;;;;;5037184;28;20040;-73
2022/01/10 11:11:07;;;;;;;7.88;4.40;;;11.10;99.90;;;;;;5043511;28;20056;-72
2022/01/10 11:13:33;;;;;;;11.85;4.15;;;11.00;99.90;;;;;;5040894;28;20130;-72
2022/01/10 11:15:58;;;;;;;10.20;3.13;;;11.00;99.90;;;;;;5040433;28;20095;-72
2022/01/10 11:18:26;;;;;;;9.27;3.20;;;10.90;99.90;;;;;;5037485;28;20063;-73
2022/01/10 11:20:58;;;;;;;14.35;3.55;;;10.90;99.90;;;;;;5026328;28;20043;-72
2022/01/10 11:23:24;;;;;;;8.88;2.88;;;10.80;99.90;;;;;;5038818;28;20112;-72
2022/01/10 11:25:50;;;;;;;10.95;2.42;;;10.60;99.90;;;;;;5040412;28;20053;-73
2022/01/10 11:28:25;;;;;;;7.50;2.60;;;10.30;99.90;;;;;;5041066;28;20484;-71
2022/01/10 11:30:53;;;;;;;4.25;1.10;;;10.20;99.90;;;;;;5047106;28;20033;-72
2022/01/10 11:33:32;;;;;;;4.50;1.20;;;10.10;99.90;;;;;;5036045;28;20065;-73
2022/01/10 11:36:04;;;;;;;6.38;1.00;;;10.00;99.90;;;;;;5036564;28;20044;-72
2022/01/10 11:38:41;;;;;;;9.55;1.50;;;9.90;99.90;;;;;;5039507;28;20383;-72
2022/01/10 11:41:15;;;;;;;6.18;1.10;;;9.80;99.90;;;;;;5045228;28;20119;-73
2022/01/10 11:43:52;;;;;;;9.95;1.45;;;9.80;99.90;;;;;;5045203;28;20041;-72
2022/01/10 11:46:43;;;;;;;3.25;1.15;;;9.90;99.90;;;;;;5041068;28;20037;-71
2022/01/10 11:49:09;;;;;;;5.32;1.10;;;9.90;99.90;;;;;;5037505;28;20037;-72
2022/01/10 11:51:36;;;;;;;9.85;1.95;;;10.00;99.90;;;;;;5023243;28;20044;-73
2022/01/10 11:54:22;;;;;;;8.10;1.55;;;10.00;99.90;;;;;;5022151;28;20691;-71
2022/01/10 11:57:01;;;;;;;5.53;1.38;;;10.10;99.90;;;;;;5022767;28;20037;-72
2022/01/10 11:59:53;;;;;;;4.38;1.10;;;10.00;99.90;;;;;;5019961;28;20041;-72
2022/01/10 12:02:23;;;;;;;4.45;1.70;;;9.90;99.90;;;;;;5024040;28;20072;-73
2022/01/10 12:05:00;;;;;;;6.45;1.55;;;9.90;99.90;;;;;;5026999;28;20046;-72
2022/01/10 12:07:27;;;;;;;4.80;1.48;;;9.90;99.90;;;;;;5026756;28;20140;-71
2022/01/10 12:09:55;;;;;;;7.28;1.17;;;9.90;99.90;;;;;;5025234;28;20045;-73
2022/01/10 12:12:25;;;;;;;4.55;0.93;;;9.90;99.90;;;;;;5024165;28;20113;-72
2022/01/10 12:14:52;;;;;;;2.40;1.08;;;9.80;99.90;;;;;;5022079;28;20400;-72
2022/01/10 12:17:19;;;;;;;4.70;1.30;;;9.90;99.90;;;;;;5016929;28;20502;-72
2022/01/10 12:19:45;;;;;;;10.77;2.00;;;9.80;99.90;;;;;;5012140;28;20123;-73
2022/01/10 12:22:11;;;;;;;7.82;1.20;;;9.70;99.90;;;;;;5040356;28;20910;-71
2022/01/10 12:24:39;;;;;;;4.88;1.60;;;9.60;99.90;;;;;;5024101;28;20132;-72
2022/01/10 12:27:07;;;;;;;5.45;1.88;;;9.60;99.90;;;;;;5021726;28;20042;-71
2022/01/10 12:29:34;;;;;;;4.50;1.25;;;9.60;99.90;;;;;;5017906;28;20120;-74
2022/01/10 12:32:01;;;;;;;5.00;1.40;;;9.60;99.90;;;;;;5027850;28;20073;-70
2022/01/10 12:34:27;;;;;;;4.43;1.40;;;9.60;99.90;;;;;;4999387;28;20037;-70
2022/01/10 12:36:54;;;;;;;3.80;1.30;;;9.60;99.90;;;;;;5013809;28;20106;-72
2022/01/10 12:39:26;;;;;;;5.45;1.33;;;9.60;99.90;;;;;;5018534;28;20109;-72
2022/01/10 12:41:56;;;;;;;3.83;1.83;;;9.60;99.90;;;;;;5022552;28;20048;-72
2022/01/10 12:44:22;;;;;;;6.50;1.95;;;9.60;99.90;;;;;;5032995;28;20222;-72
2022/01/10 12:46:49;;;;;;;6.53;2.10;;;9.60;99.90;;;;;;5029475;28;20037;-71
2022/01/10 12:49:16;;;;;;;7.40;2.35;;;9.60;99.90;;;;;;5019290;28;20063;-72
2022/01/10 12:51:50;;;;;;;7.47;2.65;;;9.60;99.90;;;;;;5018564;28;20048;-71
2022/01/10 12:54:23;;;;;;;8.90;2.80;;;9.60;99.90;;;;;;5016673;28;20498;-72
2022/01/10 12:56:50;;;;;;;7.35;2.50;;;9.60;99.90;;;;;;5028289;28;20045;-72